Time,TemperatureF,DewpointF,PressureIn,WindDirection,WindDirectionDegrees,WindSpeedMPH,WindSpeedGustMPH,Humidity,HourlyPrecipIn,Conditions,Clouds,dailyrainin,SoftwareType,DateUTC
2013-08-25 00:00:00,58.5,37.8,30.30,ENE,76,0.0,0.0,46,0.00,,,0.00,VWS V14.01,2013-08-25 04:00:00,
2013-08-25 00:01:00,58.5,38.4,30.30,ENE,76,0.0,0.0,47,0.00,,,0.00,VWS V14.01,2013-08-25 04:01:00,
2013-08-25 00:02:00,58.5,38.4,30.30,ENE,76,0.0,0.0,47,0.00,,,0.00,VWS V14.01,2013-08-25 04:02:00,
2013-08-25 00:07:00,58.4,38.3,30.30,ENE,76,0.0,0.0,47,0.00,,,0.00,VWS V14.01,2013-08-25 04:07:00,
2013-08-25 00:12:00,58.3,38.2,30.30,ENE,76,0.0,0.0,47,0.00,,,0.00,VWS V14.01,2013-08-25 04:12:00,
2013-08-25 00:17:00,58.2,37.5,30.30,ENE,76,0.0,0.0,46,0.00,,,0.00,VWS V14.01,2013-08-25 04:17:00,
2013-08-25 00:22:00,58.2,38.1,30.30,ENE,76,0.0,0.0,47,0.00,,,0.00,VWS V14.01,2013-08-25 04:22:00,
2013-08-25 00:27:00,58.1,38.5,30.30,ENE,76,0.0,0.0,48,0.00,,,0.00,VWS V14.01,2013-08-25 04:27:00,
2013-08-25 00:30:00,59.2,40.6,30.29,ENE,76,0.0,0.0,50,0.00,,,0.00,VWS V15.00,2013-08-25 04:30:00,
2013-08-25 00:32:00,58.1,38.5,30.31,ENE,76,0.0,0.0,48,0.00,,,0.00,VWS V14.01,2013-08-25 04:32:00,
2013-08-25 00:37:00,58.1,39.1,30.31,ENE,76,0.0,0.0,49,0.00,,,0.00,VWS V14.01,2013-08-25 04:37:00,
2013-08-25 00:42:00,58.0,39.0,30.31,ENE,76,0.0,0.0,49,0.00,,,0.00,VWS V14.01,2013-08-25 04:42:00,
2013-08-25 00:47:00,57.9,39.4,30.31,ENE,76,0.0,0.0,50,0.00,,,0.00,VWS V14.01,2013-08-25 04:47:00,
2013-08-25 00:52:00,57.8,39.3,30.31,ENE,76,0.0,0.0,50,0.00,,,0.00,VWS V14.01,2013-08-25 04:52:00,
2013-08-25 00:57:00,57.8,39.3,30.31,ENE,76,0.0,0.0,50,0.00,,,0.00,VWS V14.01,2013-08-25 04:57:00,
2013-08-25 01:00:00,58.6,38.5,30.30,ENE,76,0.0,0.0,47,0.00,,,0.00,VWS V15.00,2013-08-25 05:00:00,
2013-08-25 01:02:00,57.7,39.7,30.31,ENE,76,0.0,0.0,51,0.00,,,0.00,VWS V14.01,2013-08-25 05:02:00,
2013-08-25 01:07:00,57.6,39.6,30.31,ENE,76,0.0,0.0,51,0.00,,,0.00,VWS V14.01,2013-08-25 05:07:00,
2013-08-25 01:12:00,57.5,39.5,30.31,ENE,76,0.0,0.0,51,0.00,,,0.00,VWS V14.01,2013-08-25 05:12:00,
2013-08-25 01:17:00,57.3,38.8,30.31,ENE,76,0.0,0.0,50,0.00,,,0.00,VWS V14.01,2013-08-25 05:17:00,
2013-08-25 01:22:00,57.2,38.8,30.31,ENE,76,0.0,0.0,50,0.00,,,0.00,VWS V14.01,2013-08-25 05:22:00,
2013-08-25 01:27:00,57.1,38.7,30.31,ENE,76,0.0,0.0,50,0.00,,,0.00,VWS V14.01,2013-08-25 05:27:00,
2013-08-25 01:30:00,58.1,38.5,30.30,ENE,76,0.0,0.0,48,0.00,,,0.00,VWS V15.00,2013-08-25 05:30:00,
2013-08-25 01:32:00,56.9,38.5,30.31,ENE,76,0.0,0.0,50,0.00,,,0.00,VWS V14.01,2013-08-25 05:32:00,
2013-08-25 01:37:00,56.8,38.9,30.31,ENE,76,0.0,0.0,51,0.00,,,0.00,VWS V14.01,2013-08-25 05:37:00,
2013-08-25 01:42:00,56.7,38.3,30.30,ENE,76,0.0,0.0,50,0.00,,,0.00,VWS V14.01,2013-08-25 05:42:00,
2013-08-25 01:47:00,56.6,38.2,30.30,ENE,76,0.0,0.0,50,0.00,,,0.00,VWS V14.01,2013-08-25 05:47:00,
2013-08-25 01:52:00,56.4,37.5,30.30,ENE,76,0.0,0.0,49,0.00,,,0.00,VWS V14.01,2013-08-25 05:52:00,
2013-08-25 01:57:00,56.3,37.4,30.30,ENE,76,0.0,0.0,49,0.00,,,0.00,VWS V14.01,2013-08-25 05:57:00,
2013-08-25 02:00:00,57.7,39.2,30.31,ENE,76,0.0,0.0,50,0.00,,,0.00,VWS V15.00,2013-08-25 06:00:00,
2013-08-25 02:02:00,56.2,36.8,30.30,ENE,76,0.0,0.0,48,0.00,,,0.00,VWS V14.01,2013-08-25 06:02:00,
2013-08-25 02:07:00,56.1,36.2,30.30,ENE,76,0.0,0.0,47,0.00,,,0.00,VWS V14.01,2013-08-25 06:07:00,
2013-08-25 02:12:00,56.0,35.5,30.30,ENE,76,0.0,0.0,46,0.00,,,0.00,VWS V14.01,2013-08-25 06:12:00,
2013-08-25 02:17:00,55.9,35.4,30.30,ENE,76,0.0,0.0,46,0.00,,,0.00,VWS V14.01,2013-08-25 06:17:00,
2013-08-25 02:22:00,55.8,34.8,30.30,ENE,76,0.0,0.0,45,0.00,,,0.00,VWS V14.01,2013-08-25 06:22:00,
2013-08-25 02:27:00,55.8,34.8,30.30,ENE,76,0.0,0.0,45,0.00,,,0.00,VWS V14.01,2013-08-25 06:27:00,
2013-08-25 02:30:00,57.0,38.6,30.31,ENE,76,0.0,0.0,50,0.00,,,0.00,VWS V15.00,2013-08-25 06:30:00,
2013-08-25 02:32:00,55.7,34.7,30.30,ENE,76,0.0,0.0,45,0.00,,,0.00,VWS V14.01,2013-08-25 06:32:00,
2013-08-25 02:37:00,55.6,34.6,30.30,ENE,76,0.0,0.0,45,0.00,,,0.00,VWS V14.01,2013-08-25 06:37:00,
2013-08-25 02:42:00,55.6,34.6,30.30,ENE,76,0.0,0.0,45,0.00,,,0.00,VWS V14.01,2013-08-25 06:42:00,
2013-08-25 02:47:00,55.5,34.5,30.30,ENE,76,0.0,0.0,45,0.00,,,0.00,VWS V14.01,2013-08-25 06:47:00,
2013-08-25 02:52:00,55.4,34.4,30.30,ENE,76,0.0,0.0,45,0.00,,,0.00,VWS V14.01,2013-08-25 06:52:00,
2013-08-25 02:57:00,55.3,34.3,30.30,ENE,76,0.0,0.0,45,0.00,,,0.00,VWS V14.01,2013-08-25 06:57:00,
2013-08-25 03:00:00,56.3,37.4,30.30,ENE,76,0.0,0.0,49,0.00,,,0.00,VWS V15.00,2013-08-25 07:00:00,
2013-08-25 03:02:00,55.1,34.2,30.30,ENE,76,0.0,0.0,45,0.00,,,0.00,VWS V14.01,2013-08-25 07:02:00,
2013-08-25 03:07:00,55.0,34.1,30.30,ENE,76,0.0,0.0,45,0.00,,,0.00,VWS V14.01,2013-08-25 07:07:00,
2013-08-25 03:12:00,54.9,33.4,30.31,ENE,76,0.0,0.0,44,0.00,,,0.00,VWS V14.01,2013-08-25 07:12:00,
2013-08-25 03:17:00,54.8,32.8,30.31,ENE,76,0.0,0.0,43,0.00,,,0.00,VWS V14.01,2013-08-25 07:17:00,
2013-08-25 03:22:00,54.7,32.1,30.31,ENE,76,0.0,0.0,42,0.00,,,0.00,VWS V14.01,2013-08-25 07:22:00,
2013-08-25 03:27:00,54.6,31.4,30.31,ENE,76,0.0,0.0,41,0.00,,,0.00,VWS V14.01,2013-08-25 07:27:00,
2013-08-25 03:30:00,55.7,34.7,30.30,ENE,76,0.0,0.0,45,0.00,,,0.00,VWS V15.00,2013-08-25 07:30:00,
2013-08-25 03:32:00,54.6,30.8,30.31,ENE,76,0.0,0.0,40,0.00,,,0.00,VWS V14.01,2013-08-25 07:32:00,
2013-08-25 03:37:00,54.6,30.8,30.31,ENE,76,0.0,0.0,40,0.00,,,0.00,VWS V14.01,2013-08-25 07:37:00,
2013-08-25 03:42:00,54.5,30.1,30.31,ENE,76,0.0,0.0,39,0.00,,,0.00,VWS V14.01,2013-08-25 07:42:00,
2013-08-25 03:47:00,54.5,30.1,30.31,ENE,76,0.0,0.0,39,0.00,,,0.00,VWS V14.01,2013-08-25 07:47:00,
2013-08-25 03:52:00,54.4,30.0,30.31,ENE,76,0.0,0.0,39,0.00,,,0.00,VWS V14.01,2013-08-25 07:52:00,
2013-08-25 03:57:00,54.3,29.9,30.31,ENE,76,0.0,0.0,39,0.00,,,0.00,VWS V14.01,2013-08-25 07:57:00,
2013-08-25 04:00:00,55.2,34.2,30.30,ENE,76,0.0,0.0,45,0.00,,,0.00,VWS V15.00,2013-08-25 08:00:00,
2013-08-25 04:02:00,54.2,29.8,30.31,ENE,76,0.0,0.0,39,0.00,,,0.00,VWS V14.01,2013-08-25 08:02:00,
2013-08-25 04:07:00,54.2,28.5,30.31,ENE,76,0.0,0.0,37,0.00,,,0.00,VWS V14.01,2013-08-25 08:07:00,
2013-08-25 04:12:00,54.2,27.9,30.31,ENE,76,0.0,0.0,36,0.00,,,0.00,VWS V14.01,2013-08-25 08:12:00,
2013-08-25 04:17:00,54.2,27.9,30.31,ENE,76,0.0,0.0,36,0.00,,,0.00,VWS V14.01,2013-08-25 08:17:00,
2013-08-25 04:22:00,54.1,27.8,30.31,ENE,76,0.0,0.0,36,0.00,,,0.00,VWS V14.01,2013-08-25 08:22:00,
2013-08-25 04:27:00,54.0,28.3,30.31,ENE,76,0.0,0.0,37,0.00,,,0.00,VWS V14.01,2013-08-25 08:27:00,
2013-08-25 04:30:00,54.6,31.4,30.31,ENE,76,0.0,0.0,41,0.00,,,0.00,VWS V15.00,2013-08-25 08:30:00,
2013-08-25 04:32:00,54.0,28.3,30.31,ENE,76,0.0,0.0,37,0.00,,,0.00,VWS V14.01,2013-08-25 08:32:00,
2013-08-25 04:37:00,53.9,28.2,30.31,ENE,76,0.0,0.0,37,0.00,,,0.00,VWS V14.01,2013-08-25 08:37:00,
2013-08-25 04:42:00,53.7,28.7,30.31,ENE,76,0.0,0.0,38,0.00,,,0.00,VWS V14.01,2013-08-25 08:42:00,
2013-08-25 04:47:00,53.6,28.6,30.31,ENE,76,0.0,0.0,38,0.00,,,0.00,VWS V14.01,2013-08-25 08:47:00,
2013-08-25 04:52:00,53.5,28.5,30.31,ENE,76,0.0,0.0,38,0.00,,,0.00,VWS V14.01,2013-08-25 08:52:00,
2013-08-25 04:57:00,53.4,27.8,30.31,ENE,76,0.0,0.0,37,0.00,,,0.00,VWS V14.01,2013-08-25 08:57:00,
2013-08-25 05:00:00,54.2,29.8,30.31,ENE,76,0.0,0.0,39,0.00,,,0.00,VWS V15.00,2013-08-25 09:00:00,
2013-08-25 05:02:00,53.3,28.4,30.32,ENE,76,0.0,0.0,38,0.00,,,0.00,VWS V14.01,2013-08-25 09:02:00,
2013-08-25 05:07:00,53.2,27.6,30.32,ENE,76,0.0,0.0,37,0.00,,,0.00,VWS V14.01,2013-08-25 09:07:00,
2013-08-25 05:12:00,53.2,27.0,30.32,ENE,76,0.0,0.0,36,0.00,,,0.00,VWS V14.01,2013-08-25 09:12:00,
2013-08-25 05:17:00,53.1,26.9,30.32,ENE,76,0.0,0.0,36,0.00,,,0.00,VWS V14.01,2013-08-25 09:17:00,
2013-08-25 05:22:00,53.0,26.8,30.32,ENE,76,0.0,0.0,36,0.00,,,0.00,VWS V14.01,2013-08-25 09:22:00,
2013-08-25 05:27:00,52.9,26.7,30.32,ENE,76,0.0,0.0,36,0.00,,,0.00,VWS V14.01,2013-08-25 09:27:00,
2013-08-25 05:30:00,54.0,28.3,30.31,ENE,76,0.0,0.0,37,0.00,,,0.00,VWS V15.00,2013-08-25 09:30:00,
2013-08-25 05:32:00,52.9,26.7,30.33,ENE,76,0.0,0.0,36,0.00,,,0.00,VWS V14.01,2013-08-25 09:32:00,
2013-08-25 05:37:00,52.8,26.6,30.33,ENE,76,0.0,0.0,36,0.00,,,0.00,VWS V14.01,2013-08-25 09:37:00,
2013-08-25 05:42:00,52.8,25.9,30.33,ENE,76,0.0,0.0,35,0.00,,,0.00,VWS V14.01,2013-08-25 09:42:00,
2013-08-25 05:47:00,52.8,25.2,30.33,ENE,76,0.0,0.0,34,0.00,,,0.00,VWS V14.01,2013-08-25 09:47:00,
2013-08-25 05:52:00,52.6,25.8,30.33,ENE,76,0.0,0.0,35,0.00,,,0.00,VWS V14.01,2013-08-25 09:52:00,
2013-08-25 05:57:00,52.5,26.3,30.33,ENE,76,0.0,0.0,36,0.00,,,0.00,VWS V14.01,2013-08-25 09:57:00,
2013-08-25 06:00:00,53.4,27.8,30.31,ENE,76,0.0,0.0,37,0.00,,,0.00,VWS V15.00,2013-08-25 10:00:00,
2013-08-25 06:02:00,52.4,26.2,30.34,ENE,76,0.0,0.0,36,0.00,,,0.00,VWS V14.01,2013-08-25 10:02:00,
2013-08-25 06:07:00,52.4,25.6,30.34,ENE,76,0.0,0.0,35,0.00,,,0.00,VWS V14.01,2013-08-25 10:07:00,
2013-08-25 06:12:00,52.3,25.5,30.34,ENE,76,0.0,0.0,35,0.00,,,0.00,VWS V14.01,2013-08-25 10:12:00,
2013-08-25 06:17:00,52.3,24.8,30.34,ENE,76,0.0,0.0,34,0.00,,,0.00,VWS V14.01,2013-08-25 10:17:00,
2013-08-25 06:22:00,52.3,24.8,30.34,ENE,76,0.0,0.0,34,0.00,,,0.00,VWS V14.01,2013-08-25 10:22:00,
2013-08-25 06:27:00,52.2,24.7,30.34,ENE,76,0.0,0.0,34,0.00,,,0.00,VWS V14.01,2013-08-25 10:27:00,
2013-08-25 06:30:00,52.9,26.7,30.32,ENE,76,0.0,0.0,36,0.00,,,0.00,VWS V15.00,2013-08-25 10:30:00,
2013-08-25 06:32:00,52.2,24.7,30.34,ENE,76,0.0,0.0,34,0.00,,,0.00,VWS V14.01,2013-08-25 10:32:00,
2013-08-25 06:37:00,52.2,24.7,30.34,ENE,76,0.0,0.0,34,0.00,,,0.00,VWS V14.01,2013-08-25 10:37:00,
2013-08-25 06:42:00,52.1,24.6,30.35,ENE,76,0.0,0.0,34,0.00,,,0.00,VWS V14.01,2013-08-25 10:42:00,
2013-08-25 06:47:00,52.0,24.5,30.35,ENE,76,0.0,0.0,34,0.00,,,0.00,VWS V14.01,2013-08-25 10:47:00,
2013-08-25 06:52:00,52.0,24.5,30.35,ENE,76,0.0,0.0,34,0.00,,,0.00,VWS V14.01,2013-08-25 10:52:00,
2013-08-25 06:57:00,51.9,24.4,30.36,ENE,76,0.0,0.0,34,0.00,,,0.00,VWS V14.01,2013-08-25 10:57:00,
2013-08-25 07:00:00,52.5,26.3,30.33,ENE,76,0.0,0.0,36,0.00,,,0.00,VWS V15.00,2013-08-25 11:00:00,
2013-08-25 07:02:00,51.9,24.4,30.36,ENE,76,0.0,0.0,34,0.00,,,0.00,VWS V14.01,2013-08-25 11:02:00,
2013-08-25 07:07:00,51.8,24.3,30.36,ENE,76,0.0,0.0,34,0.00,,,0.00,VWS V14.01,2013-08-25 11:07:00,
2013-08-25 07:12:00,51.8,24.3,30.36,ENE,76,0.0,0.0,34,0.00,,,0.00,VWS V14.01,2013-08-25 11:12:00,
2013-08-25 07:17:00,51.8,23.6,30.36,ENE,76,0.0,0.0,33,0.00,,,0.00,VWS V14.01,2013-08-25 11:17:00,
2013-08-25 07:22:00,51.8,23.6,30.36,ENE,76,0.0,0.0,33,0.00,,,0.00,VWS V14.01,2013-08-25 11:22:00,
2013-08-25 07:27:00,51.8,23.6,30.36,ENE,76,0.0,0.0,33,0.00,,,0.00,VWS V14.01,2013-08-25 11:27:00,
2013-08-25 07:30:00,52.2,24.7,30.34,ENE,76,0.0,0.0,34,0.00,,,0.00,VWS V15.00,2013-08-25 11:30:00,
2013-08-25 07:32:00,51.9,23.0,30.36,ENE,76,0.0,0.0,32,0.00,,,0.00,VWS V14.01,2013-08-25 11:32:00,
2013-08-25 07:37:00,52.1,22.4,30.36,ENE,76,0.0,0.0,31,0.00,,,0.00,VWS V14.01,2013-08-25 11:37:00,
2013-08-25 07:42:00,52.3,21.8,30.37,ENE,76,0.0,0.0,30,0.00,,,0.00,VWS V14.01,2013-08-25 11:42:00,
2013-08-25 07:47:00,52.6,21.3,30.37,ENE,76,0.0,0.0,29,0.00,,,0.00,VWS V14.01,2013-08-25 11:47:00,
2013-08-25 07:52:00,52.8,21.4,30.37,ENE,76,0.0,1.0,29,0.00,,,0.00,VWS V14.01,2013-08-25 11:52:00,
2013-08-25 07:57:00,53.1,20.9,30.37,ENE,76,0.0,1.0,28,0.00,,,0.00,VWS V14.01,2013-08-25 11:57:00,
2013-08-25 08:00:00,51.9,24.4,30.35,ENE,76,0.0,0.0,34,0.00,,,0.00,VWS V15.00,2013-08-25 12:00:00,
2013-08-25 08:02:00,53.3,21.0,30.38,ENE,76,0.0,0.0,28,0.00,,,0.00,VWS V14.01,2013-08-25 12:02:00,
2013-08-25 08:07:00,53.5,21.2,30.38,ENE,76,0.0,0.0,28,0.00,,,0.00,VWS V14.01,2013-08-25 12:07:00,
2013-08-25 08:12:00,53.7,21.4,30.38,ENE,76,0.0,0.0,28,0.00,,,0.00,VWS V14.01,2013-08-25 12:12:00,
2013-08-25 08:17:00,53.9,20.7,30.38,ENE,76,0.0,0.0,27,0.00,,,0.00,VWS V14.01,2013-08-25 12:17:00,
2013-08-25 08:22:00,54.2,21.0,30.39,ENE,76,0.0,0.0,27,0.00,,,0.00,VWS V14.01,2013-08-25 12:22:00,
2013-08-25 08:27:00,54.6,21.3,30.39,ENE,76,0.0,0.0,27,0.00,,,0.00,VWS V14.01,2013-08-25 12:27:00,
2013-08-25 08:30:00,51.8,23.6,30.36,ENE,76,0.0,0.0,33,0.00,,,0.00,VWS V15.00,2013-08-25 12:30:00,
2013-08-25 08:32:00,55.1,20.9,30.39,ENE,76,0.0,0.0,26,0.00,,,0.00,VWS V14.01,2013-08-25 12:32:00,
2013-08-25 08:37:00,55.3,21.0,30.38,ENE,76,0.0,0.0,26,0.00,,,0.00,VWS V14.01,2013-08-25 12:37:00,
2013-08-25 08:42:00,55.6,21.3,30.38,ENE,76,0.0,0.0,26,0.00,,,0.00,VWS V14.01,2013-08-25 12:42:00,
2013-08-25 08:47:00,55.9,20.6,30.39,ENE,76,0.0,0.0,25,0.00,,,0.00,VWS V14.01,2013-08-25 12:47:00,
2013-08-25 08:52:00,56.2,20.9,30.39,ENE,76,0.0,0.0,25,0.00,,,0.00,VWS V14.01,2013-08-25 12:52:00,
2013-08-25 08:57:00,56.5,21.1,30.39,ENE,76,0.0,0.0,25,0.00,,,0.00,VWS V14.01,2013-08-25 12:57:00,
2013-08-25 09:00:00,53.2,21.0,30.37,ENE,76,0.0,1.0,28,0.00,,,0.00,VWS V15.00,2013-08-25 13:00:00,
2013-08-25 09:02:00,56.8,21.4,30.39,ENE,76,0.0,0.0,25,0.00,,,0.00,VWS V14.01,2013-08-25 13:02:00,
2013-08-25 09:07:00,57.2,24.4,30.39,ENE,76,0.0,0.0,28,0.00,,,0.00,VWS V14.01,2013-08-25 13:07:00,
2013-08-25 09:12:00,57.7,28.8,30.39,ENE,76,0.0,0.0,33,0.00,,,0.00,VWS V14.01,2013-08-25 13:12:00,
2013-08-25 09:17:00,58.3,35.9,30.39,ENE,76,0.0,0.0,43,0.00,,,0.00,VWS V14.01,2013-08-25 13:17:00,
2013-08-25 09:22:00,58.9,41.3,30.39,ENE,76,0.0,0.0,52,0.00,,,0.00,VWS V14.01,2013-08-25 13:22:00,
2013-08-25 09:27:00,59.7,44.9,30.39,ENE,76,0.0,0.0,58,0.00,,,0.00,VWS V14.01,2013-08-25 13:27:00,
2013-08-25 09:30:00,54.8,20.6,30.39,ENE,76,0.0,0.0,26,0.00,,,0.00,VWS V15.00,2013-08-25 13:30:00,
2013-08-25 09:32:00,60.5,47.4,30.39,ENE,76,0.0,0.0,62,0.00,,,0.00,VWS V14.01,2013-08-25 13:32:00,
2013-08-25 09:37:00,61.4,50.0,30.39,ENE,76,0.0,0.0,66,0.00,,,0.00,VWS V14.01,2013-08-25 13:37:00,
2013-08-25 09:42:00,62.1,51.8,30.39,ENE,76,0.0,1.0,69,0.00,,,0.00,VWS V14.01,2013-08-25 13:42:00,
2013-08-25 09:47:00,62.7,52.8,30.39,ENE,76,0.0,1.0,70,0.00,,,0.00,VWS V14.01,2013-08-25 13:47:00,
2013-08-25 09:52:00,63.1,54.7,30.39,ENE,78,0.0,1.0,74,0.00,,,0.00,VWS V14.01,2013-08-25 13:52:00,
2013-08-25 09:57:00,63.8,54.6,30.39,ENE,78,0.0,1.0,72,0.00,,,0.00,VWS V14.01,2013-08-25 13:57:00,
2013-08-25 10:00:00,56.6,21.2,30.39,ENE,76,0.0,0.0,25,0.00,,,0.00,VWS V15.00,2013-08-25 14:00:00,
2013-08-25 10:02:00,64.3,56.6,30.39,ENE,78,0.0,1.0,76,0.00,,,0.00,VWS V14.01,2013-08-25 14:02:00,
2013-08-25 10:07:00,64.8,57.4,30.39,ENE,73,0.0,2.0,77,0.00,,,0.00,VWS V14.01,2013-08-25 14:07:00,
2013-08-25 10:12:00,65.2,58.2,30.39,ENE,66,0.0,3.0,78,0.00,,,0.00,VWS V14.01,2013-08-25 14:12:00,
2013-08-25 10:17:00,65.6,58.6,30.38,ENE,66,0.0,3.0,78,0.00,,,0.00,VWS V14.01,2013-08-25 14:17:00,
2013-08-25 10:22:00,65.9,58.9,30.38,ENE,66,0.0,3.0,78,0.00,,,0.00,VWS V14.01,2013-08-25 14:22:00,
2013-08-25 10:27:00,66.2,59.2,30.38,ENE,64,0.0,3.0,78,0.00,,,0.00,VWS V14.01,2013-08-25 14:27:00,
2013-08-25 10:30:00,60.0,45.7,30.39,ENE,76,0.0,0.0,59,0.00,,,0.00,VWS V15.00,2013-08-25 14:30:00,
2013-08-25 10:32:00,66.5,59.4,30.38,NNW,345,1.0,1.0,78,0.00,,,0.00,VWS V14.01,2013-08-25 14:32:00,
2013-08-25 10:37:00,66.8,59.4,30.38,NE,35,0.0,2.0,77,0.00,,,0.00,VWS V14.01,2013-08-25 14:37:00,
2013-08-25 10:42:00,67.1,59.3,30.38,NE,39,0.0,2.0,76,0.00,,,0.00,VWS V14.01,2013-08-25 14:42:00,
2013-08-25 10:47:00,67.3,59.5,30.38,NE,39,0.0,2.0,76,0.00,,,0.00,VWS V14.01,2013-08-25 14:47:00,
2013-08-25 10:52:00,67.4,59.2,30.38,NE,39,0.0,2.0,75,0.00,,,0.00,VWS V14.01,2013-08-25 14:52:00,
2013-08-25 10:57:00,67.7,59.1,30.38,NE,39,0.0,2.0,74,0.00,,,0.00,VWS V14.01,2013-08-25 14:57:00,
2013-08-25 11:00:00,64.0,56.7,30.39,ENE,78,0.0,1.0,77,0.00,,,0.00,VWS V15.00,2013-08-25 15:00:00,
2013-08-25 11:02:00,67.9,58.5,30.38,NNE,29,0.0,1.0,72,0.00,,,0.00,VWS V14.01,2013-08-25 15:02:00,
2013-08-25 11:07:00,68.0,58.7,30.38,NNE,28,0.0,1.0,72,0.00,,,0.00,VWS V14.01,2013-08-25 15:07:00,
2013-08-25 11:12:00,68.2,58.8,30.38,NNE,32,2.0,2.0,72,0.00,,,0.00,VWS V14.01,2013-08-25 15:12:00,
2013-08-25 11:17:00,68.3,59.7,30.38,South,188,0.0,3.0,74,0.00,,,0.00,VWS V14.01,2013-08-25 15:17:00,
2013-08-25 11:22:00,68.5,60.3,30.38,SSW,205,0.0,3.0,75,0.00,,,0.00,VWS V14.01,2013-08-25 15:22:00,
2013-08-25 11:27:00,68.6,59.6,30.38,NE,46,0.0,3.0,73,0.00,,,0.00,VWS V14.01,2013-08-25 15:27:00,
2013-08-25 11:30:00,66.3,59.2,30.38,ENE,64,0.0,3.0,78,0.00,,,0.00,VWS V15.00,2013-08-25 15:30:00,
2013-08-25 11:32:00,68.8,59.4,30.38,NE,46,0.0,0.0,72,0.00,,,0.00,VWS V14.01,2013-08-25 15:32:00,
2013-08-25 11:37:00,69.0,58.8,30.37,NE,37,0.0,2.0,70,0.00,,,0.00,VWS V14.01,2013-08-25 15:37:00,
2013-08-25 11:42:00,69.2,59.0,30.37,NE,37,0.0,2.0,70,0.00,,,0.00,VWS V14.01,2013-08-25 15:42:00,
2013-08-25 11:47:00,69.5,58.9,30.37,NE,37,0.0,2.0,69,0.00,,,0.00,VWS V14.01,2013-08-25 15:47:00,
2013-08-25 11:52:00,69.8,59.6,30.37,North,350,0.0,2.0,70,0.00,,,0.00,VWS V14.01,2013-08-25 15:52:00,
2013-08-25 11:57:00,70.1,59.5,30.37,NNE,21,0.0,2.0,69,0.00,,,0.00,VWS V14.01,2013-08-25 15:57:00,
2013-08-25 12:00:00,67.8,58.1,30.38,NNE,28,0.0,2.0,71,0.00,,,0.00,VWS V15.00,2013-08-25 16:00:00,
2013-08-25 12:02:00,70.5,59.0,30.36,NE,39,0.0,1.0,67,0.00,,,0.00,VWS V14.01,2013-08-25 16:02:00,
2013-08-25 12:07:00,70.4,58.5,30.36,NE,53,1.0,1.0,66,0.00,,,0.00,VWS V14.01,2013-08-25 16:07:00,
2013-08-25 12:12:00,70.3,59.2,30.36,ENE,71,0.0,3.0,68,0.00,,,0.00,VWS V14.01,2013-08-25 16:12:00,
2013-08-25 12:17:00,70.5,59.0,30.36,WSW,239,0.0,3.0,67,0.00,,,0.00,VWS V14.01,2013-08-25 16:17:00,
2013-08-25 12:22:00,70.6,58.7,30.36,NNE,12,0.0,4.0,66,0.00,,,0.00,VWS V14.01,2013-08-25 16:22:00,
2013-08-25 12:27:00,71.0,60.3,30.36,ENE,73,1.0,4.0,69,0.00,,,0.00,VWS V14.01,2013-08-25 16:27:00,
2013-08-25 12:30:00,68.7,59.7,30.38,NE,46,0.0,3.0,73,0.00,,,0.00,VWS V15.00,2013-08-25 16:30:00,
2013-08-25 12:32:00,71.4,59.9,30.36,East,83,0.0,1.0,67,0.00,,,0.00,VWS V14.01,2013-08-25 16:32:00,
2013-08-25 12:37:00,71.6,60.5,30.36,ESE,116,0.0,1.0,68,0.00,,,0.00,VWS V14.01,2013-08-25 16:37:00,
2013-08-25 12:42:00,71.7,60.2,30.36,ENE,75,0.0,3.0,67,0.00,,,0.00,VWS V14.01,2013-08-25 16:42:00,
2013-08-25 12:47:00,72.0,60.5,30.36,East,86,0.0,3.0,67,0.00,,,0.00,VWS V14.01,2013-08-25 16:47:00,
2013-08-25 12:52:00,72.2,61.1,30.36,NNW,340,0.0,5.0,68,0.00,,,0.00,VWS V14.01,2013-08-25 16:52:00,
2013-08-25 12:57:00,72.6,61.0,30.36,NE,43,1.0,5.0,67,0.00,,,0.00,VWS V14.01,2013-08-25 16:57:00,
2013-08-25 13:00:00,70.3,59.7,30.37,NNE,13,0.0,2.0,69,0.00,,,0.00,VWS V15.00,2013-08-25 17:00:00,
2013-08-25 13:02:00,73.0,61.4,30.35,NNW,347,0.0,3.0,67,0.00,,,0.00,VWS V14.01,2013-08-25 17:02:00,
2013-08-25 13:07:00,73.1,59.3,30.35,ENE,61,0.0,3.0,62,0.00,,,0.00,VWS V14.01,2013-08-25 17:07:00,
2013-08-25 13:12:00,73.6,61.1,30.34,ENE,73,0.0,3.0,65,0.00,,,0.00,VWS V14.01,2013-08-25 17:12:00,
2013-08-25 13:17:00,73.7,60.8,30.34,ESE,104,0.0,4.0,64,0.00,,,0.00,VWS V14.01,2013-08-25 17:17:00,
2013-08-25 13:22:00,73.7,59.9,30.34,NE,34,2.0,4.0,62,0.00,,,0.00,VWS V14.01,2013-08-25 17:22:00,
2013-08-25 13:27:00,73.9,60.5,30.34,NNW,342,0.0,4.0,63,0.00,,,0.00,VWS V14.01,2013-08-25 17:27:00,
2013-08-25 13:30:00,71.2,59.3,30.36,ENE,78,0.0,4.0,66,0.00,,,0.00,VWS V15.00,2013-08-25 17:30:00,
2013-08-25 13:32:00,74.1,62.0,30.33,NW,317,0.0,0.0,66,0.00,,,0.00,VWS V14.01,2013-08-25 17:32:00,
2013-08-25 13:37:00,74.2,61.2,30.33,South,182,0.0,6.0,64,0.00,,,0.00,VWS V14.01,2013-08-25 17:37:00,
2013-08-25 13:42:00,74.2,61.7,30.33,East,84,0.0,6.0,65,0.00,,,0.00,VWS V14.01,2013-08-25 17:42:00,
2013-08-25 13:47:00,74.5,60.6,30.32,East,84,0.0,6.0,62,0.00,,,0.00,VWS V14.01,2013-08-25 17:47:00,
2013-08-25 13:52:00,75.1,62.5,30.32,ENE,61,0.0,6.0,65,0.00,,,0.00,VWS V14.01,2013-08-25 17:52:00,
2013-08-25 13:57:00,75.8,60.9,30.32,NNE,24,0.0,6.0,60,0.00,,,0.00,VWS V14.01,2013-08-25 17:57:00,
2013-08-25 14:00:00,72.8,60.8,30.36,NE,40,0.0,5.0,66,0.00,,,0.00,VWS V15.00,2013-08-25 18:00:00,
2013-08-25 14:02:00,75.7,60.4,30.32,ENE,68,0.0,2.0,59,0.00,,,0.00,VWS V14.01,2013-08-25 18:02:00,
2013-08-25 14:07:00,75.3,60.9,30.32,ENE,68,1.0,2.0,61,0.00,,,0.00,VWS V14.01,2013-08-25 18:07:00,
2013-08-25 14:12:00,75.2,61.8,30.32,ENE,68,0.0,2.0,63,0.00,,,0.00,VWS V14.01,2013-08-25 18:12:00,
2013-08-25 14:17:00,75.1,60.8,30.32,South,172,0.0,2.0,61,0.00,,,0.00,VWS V14.01,2013-08-25 18:17:00,
2013-08-25 14:22:00,74.7,60.4,30.32,East,85,1.0,2.0,61,0.00,,,0.00,VWS V14.01,2013-08-25 18:22:00,
2013-08-25 14:27:00,74.3,60.9,30.32,ENE,65,0.0,2.0,63,0.00,,,0.00,VWS V14.01,2013-08-25 18:27:00,
2013-08-25 14:30:00,73.9,60.5,30.34,NW,315,0.0,4.0,63,0.00,,,0.00,VWS V15.00,2013-08-25 18:30:00,
2013-08-25 14:32:00,74.0,61.5,30.32,ENE,65,0.0,1.0,65,0.00,,,0.00,VWS V14.01,2013-08-25 18:32:00,
2013-08-25 14:37:00,73.7,60.3,30.32,ENE,65,0.0,1.0,63,0.00,,,0.00,VWS V14.01,2013-08-25 18:37:00,
2013-08-25 14:42:00,73.6,61.1,30.32,ENE,68,0.0,2.0,65,0.00,,,0.00,VWS V14.01,2013-08-25 18:42:00,
2013-08-25 14:47:00,73.6,61.1,30.33,ENE,69,0.0,2.0,65,0.00,,,0.00,VWS V14.01,2013-08-25 18:47:00,
2013-08-25 14:52:00,73.4,60.0,30.32,ENE,71,0.0,2.0,63,0.00,,,0.00,VWS V14.01,2013-08-25 18:52:00,
2013-08-25 14:57:00,73.2,60.7,30.32,East,89,0.0,2.0,65,0.00,,,0.00,VWS V14.01,2013-08-25 18:57:00,
2013-08-25 15:00:00,75.9,61.0,30.32,NNE,24,0.0,6.0,60,0.00,,,0.00,VWS V15.00,2013-08-25 19:00:00,
2013-08-25 15:02:00,73.2,60.7,30.32,ENE,73,0.0,4.0,65,0.00,,,0.00,VWS V14.01,2013-08-25 19:02:00,
2013-08-25 15:07:00,73.3,60.8,30.31,ENE,72,0.0,4.0,65,0.00,,,0.00,VWS V14.01,2013-08-25 19:07:00,
2013-08-25 15:12:00,73.3,61.3,30.31,ENE,72,0.0,4.0,66,0.00,,,0.00,VWS V14.01,2013-08-25 19:12:00,
2013-08-25 15:17:00,73.4,61.4,30.30,SSW,194,0.0,4.0,66,0.00,,,0.00,VWS V14.01,2013-08-25 19:17:00,
2013-08-25 15:22:00,73.2,62.4,30.31,East,89,0.0,4.0,69,0.00,,,0.00,VWS V14.01,2013-08-25 19:22:00,
2013-08-25 15:27:00,73.3,61.7,30.30,NE,55,0.0,4.0,67,0.00,,,0.00,VWS V14.01,2013-08-25 19:27:00,
2013-08-25 15:30:00,74.1,60.7,30.32,ENE,65,0.0,2.0,63,0.00,,,0.00,VWS V15.00,2013-08-25 19:30:00,
2013-08-25 15:32:00,73.5,61.0,30.30,NNW,329,0.0,1.0,65,0.00,,,0.00,VWS V14.01,2013-08-25 19:32:00,
2013-08-25 15:37:00,73.4,60.5,30.30,East,82,0.0,1.0,64,0.00,,,0.00,VWS V14.01,2013-08-25 19:37:00,
2013-08-25 15:42:00,73.7,61.2,30.30,East,82,0.0,1.0,65,0.00,,,0.00,VWS V14.01,2013-08-25 19:42:00,
2013-08-25 15:47:00,74.7,61.7,30.30,South,186,1.0,1.0,64,0.00,,,0.00,VWS V14.01,2013-08-25 19:47:00,
2013-08-25 15:52:00,75.3,62.7,30.30,South,171,0.0,1.0,65,0.00,,,0.00,VWS V14.01,2013-08-25 19:52:00,
2013-08-25 15:57:00,75.8,61.9,30.29,ESE,106,0.0,1.0,62,0.00,,,0.00,VWS V14.01,2013-08-25 19:57:00,
2013-08-25 16:00:00,73.2,61.2,30.32,East,89,0.0,2.0,66,0.00,,,0.00,VWS V15.00,2013-08-25 20:00:00,
2013-08-25 16:02:00,76.2,61.8,30.29,East,85,0.0,2.0,61,0.00,,,0.00,VWS V14.01,2013-08-25 20:02:00,
2013-08-25 16:07:00,76.8,61.9,30.29,NE,49,0.0,2.0,60,0.00,,,0.00,VWS V14.01,2013-08-25 20:07:00,
2013-08-25 16:12:00,77.3,60.9,30.29,NE,49,0.0,2.0,57,0.00,,,0.00,VWS V14.01,2013-08-25 20:12:00,
2013-08-25 16:17:00,77.5,60.6,30.29,ENE,70,0.0,3.0,56,0.00,,,0.00,VWS V14.01,2013-08-25 20:17:00,
2013-08-25 16:22:00,77.1,62.2,30.29,ENE,70,0.0,3.0,60,0.00,,,0.00,VWS V14.01,2013-08-25 20:22:00,
2013-08-25 16:27:00,76.5,61.6,30.29,ENE,59,1.0,3.0,60,0.00,,,0.00,VWS V14.01,2013-08-25 20:27:00,
2013-08-25 16:30:00,73.4,60.9,30.30,NE,53,0.0,4.0,65,0.00,,,0.00,VWS V15.00,2013-08-25 20:30:00,
2013-08-25 16:32:00,75.7,61.3,30.29,ENE,59,0.0,0.0,61,0.00,,,0.00,VWS V14.01,2013-08-25 20:32:00,
2013-08-25 16:37:00,75.3,60.0,30.29,ENE,76,0.0,2.0,59,0.00,,,0.00,VWS V14.01,2013-08-25 20:37:00,
2013-08-25 16:42:00,75.2,60.4,30.29,NNE,13,0.0,2.0,60,0.00,,,0.00,VWS V14.01,2013-08-25 20:42:00,
2013-08-25 16:47:00,74.9,60.1,30.29,NNE,13,0.0,2.0,60,0.00,,,0.00,VWS V14.01,2013-08-25 20:47:00,
2013-08-25 16:52:00,74.6,60.7,30.29,NNE,13,0.0,2.0,62,0.00,,,0.00,VWS V14.01,2013-08-25 20:52:00,
2013-08-25 16:57:00,74.4,61.0,30.29,NNE,13,0.0,2.0,63,0.00,,,0.00,VWS V14.01,2013-08-25 20:57:00,
2013-08-25 17:00:00,76.0,61.1,30.29,East,94,2.0,2.0,60,0.00,,,0.00,VWS V15.00,2013-08-25 21:00:00,
2013-08-25 17:02:00,74.4,61.0,30.28,NNE,24,0.0,1.0,63,0.00,,,0.00,VWS V14.01,2013-08-25 21:02:00,
2013-08-25 17:07:00,74.6,60.7,30.28,NE,52,0.0,3.0,62,0.00,,,0.00,VWS V14.01,2013-08-25 21:07:00,
2013-08-25 17:12:00,74.4,60.5,30.28,ENE,61,0.0,3.0,62,0.00,,,0.00,VWS V14.01,2013-08-25 21:12:00,
2013-08-25 17:17:00,74.0,60.2,30.29,ENE,60,0.0,3.0,62,0.00,,,0.00,VWS V14.01,2013-08-25 21:17:00,
2013-08-25 17:22:00,73.8,60.9,30.29,ENE,60,0.0,3.0,64,0.00,,,0.00,VWS V14.01,2013-08-25 21:22:00,
2013-08-25 17:27:00,73.7,60.3,30.28,ENE,60,0.0,3.0,63,0.00,,,0.00,VWS V14.01,2013-08-25 21:27:00,
2013-08-25 17:30:00,76.1,59.8,30.29,ENE,59,0.0,3.0,57,0.00,,,0.00,VWS V15.00,2013-08-25 21:30:00,
2013-08-25 17:32:00,73.7,60.3,30.29,ENE,58,0.0,2.0,63,0.00,,,0.00,VWS V14.01,2013-08-25 21:32:00,
2013-08-25 17:37:00,74.0,59.7,30.29,ENE,58,0.0,2.0,61,0.00,,,0.00,VWS V14.01,2013-08-25 21:37:00,
2013-08-25 17:41:00,74.3,60.5,30.29,NNE,27,0.0,2.0,62,0.00,,,0.00,VWS V14.01,2013-08-25 21:41:00,
2013-08-25 17:46:00,74.7,60.8,30.28,NNE,27,0.0,2.0,62,0.00,,,0.00,VWS V14.01,2013-08-25 21:46:00,
2013-08-25 17:51:00,74.9,61.0,30.28,NE,54,2.0,2.0,62,0.00,,,0.00,VWS V14.01,2013-08-25 21:51:00,
2013-08-25 17:56:00,75.0,61.1,30.28,ENE,67,0.0,2.0,62,0.00,,,0.00,VWS V14.01,2013-08-25 21:56:00,
2013-08-25 18:00:00,74.3,62.2,30.29,NNE,13,0.0,2.0,66,0.00,,,0.00,VWS V15.00,2013-08-25 22:00:00,
2013-08-25 18:01:00,75.2,61.8,30.28,ENE,67,0.0,1.0,63,0.00,,,0.00,VWS V14.01,2013-08-25 22:01:00,
2013-08-25 18:06:00,74.6,60.3,30.28,NNW,342,0.0,5.0,61,0.00,,,0.00,VWS V14.01,2013-08-25 22:06:00,
2013-08-25 18:11:00,74.4,61.4,30.28,NNW,342,0.0,5.0,64,0.00,,,0.00,VWS V14.01,2013-08-25 22:11:00,
2013-08-25 18:16:00,74.1,61.2,30.29,NNW,342,0.0,5.0,64,0.00,,,0.00,VWS V14.01,2013-08-25 22:16:00,
2013-08-25 18:21:00,73.8,61.7,30.29,NNW,342,0.0,5.0,66,0.00,,,0.00,VWS V14.01,2013-08-25 22:21:00,
2013-08-25 18:26:00,73.4,62.6,30.29,NNW,342,0.0,5.0,69,0.00,,,0.00,VWS V14.01,2013-08-25 22:26:00,
2013-08-25 18:30:00,73.7,59.4,30.29,ENE,60,0.0,3.0,61,0.00,,,0.00,VWS V15.00,2013-08-25 22:30:00,
2013-08-25 18:31:00,73.0,62.2,30.29,NNW,342,0.0,0.0,69,0.00,,,0.00,VWS V14.01,2013-08-25 22:31:00,
2013-08-25 18:36:00,72.6,61.0,30.29,NE,47,0.0,2.0,67,0.00,,,0.00,VWS V14.01,2013-08-25 22:36:00,
2013-08-25 18:41:00,72.5,62.2,30.29,NE,49,0.0,2.0,70,0.00,,,0.00,VWS V14.01,2013-08-25 22:41:00,
2013-08-25 18:46:00,72.4,62.1,30.29,NE,46,0.0,2.0,70,0.00,,,0.00,VWS V14.01,2013-08-25 22:46:00,
2013-08-25 18:51:00,72.3,62.4,30.29,NE,46,0.0,2.0,71,0.00,,,0.00,VWS V14.01,2013-08-25 22:51:00,
2013-08-25 18:56:00,72.2,62.7,30.29,NE,46,0.0,2.0,72,0.00,,,0.00,VWS V14.01,2013-08-25 22:56:00,
2013-08-25 19:00:00,75.2,61.8,30.28,ENE,67,0.0,2.0,63,0.00,,,0.00,VWS V15.00,2013-08-25 23:00:00,
2013-08-25 19:01:00,71.9,62.4,30.29,NE,46,0.0,0.0,72,0.00,,,0.00,VWS V14.01,2013-08-25 23:01:00,
2013-08-25 19:06:00,71.6,62.9,30.29,NE,46,0.0,0.0,74,0.00,,,0.00,VWS V14.01,2013-08-25 23:06:00,
2013-08-25 19:11:00,71.3,62.6,30.29,NE,46,0.0,0.0,74,0.00,,,0.00,VWS V14.01,2013-08-25 23:11:00,
2013-08-25 19:16:00,71.1,62.8,30.29,NE,46,0.0,0.0,75,0.00,,,0.00,VWS V14.01,2013-08-25 23:16:00,
2013-08-25 19:21:00,70.9,62.2,30.29,NE,46,0.0,1.0,74,0.00,,,0.00,VWS V14.01,2013-08-25 23:21:00,
2013-08-25 19:26:00,70.6,61.9,30.29,NE,46,0.0,1.0,74,0.00,,,0.00,VWS V14.01,2013-08-25 23:26:00,
2013-08-25 19:30:00,73.3,62.5,30.29,NNW,342,0.0,5.0,69,0.00,,,0.00,VWS V15.00,2013-08-25 23:30:00,
2013-08-25 19:31:00,70.3,62.0,30.28,NE,46,0.0,0.0,75,0.00,,,0.00,VWS V14.01,2013-08-25 23:31:00,
2013-08-25 19:36:00,70.0,61.7,30.28,NE,46,0.0,0.0,75,0.00,,,0.00,VWS V14.01,2013-08-25 23:36:00,
2013-08-25 19:41:00,69.7,61.8,30.28,NE,46,0.0,0.0,76,0.00,,,0.00,VWS V14.01,2013-08-25 23:41:00,
2013-08-25 19:46:00,69.3,61.8,30.28,NE,46,0.0,0.0,77,0.00,,,0.00,VWS V14.01,2013-08-25 23:46:00,
2013-08-25 19:51:00,68.9,61.4,30.28,NE,46,0.0,0.0,77,0.00,,,0.00,VWS V14.01,2013-08-25 23:51:00,
2013-08-25 19:56:00,68.4,61.3,30.29,NE,46,0.0,1.0,78,0.00,,,0.00,VWS V14.01,2013-08-25 23:56:00,
2013-08-25 20:00:00,72.1,62.6,30.29,NE,46,0.0,2.0,72,0.00,,,0.00,VWS V15.00,2013-08-26 00:00:00,
2013-08-25 20:01:00,68.1,61.0,30.29,NE,46,0.0,0.0,78,0.00,,,0.00,VWS V14.01,2013-08-26 00:01:00,
2013-08-25 20:06:00,67.6,60.5,30.29,NE,46,0.0,0.0,78,0.00,,,0.00,VWS V14.01,2013-08-26 00:06:00,
2013-08-25 20:11:00,67.3,60.2,30.29,NE,46,0.0,0.0,78,0.00,,,0.00,VWS V14.01,2013-08-26 00:11:00,
2013-08-25 20:16:00,67.1,60.0,30.29,NE,46,0.0,0.0,78,0.00,,,0.00,VWS V14.01,2013-08-26 00:16:00,
2013-08-25 20:21:00,66.8,59.7,30.29,NE,46,0.0,0.0,78,0.00,,,0.00,VWS V14.01,2013-08-26 00:21:00,
2013-08-25 20:26:00,66.6,59.5,30.29,NE,46,0.0,0.0,78,0.00,,,0.00,VWS V14.01,2013-08-26 00:26:00,
2013-08-25 20:30:00,70.4,61.7,30.29,NE,46,0.0,1.0,74,0.00,,,0.00,VWS V15.00,2013-08-26 00:30:00,
2013-08-25 20:31:00,66.4,59.0,30.30,NE,46,0.0,0.0,77,0.00,,,0.00,VWS V14.01,2013-08-26 00:31:00,
2013-08-25 20:36:00,66.1,58.7,30.30,NE,46,0.0,0.0,77,0.00,,,0.00,VWS V14.01,2013-08-26 00:36:00,
2013-08-25 20:41:00,66.0,58.6,30.30,NE,46,0.0,0.0,77,0.00,,,0.00,VWS V14.01,2013-08-26 00:41:00,
2013-08-25 20:46:00,65.8,58.4,30.30,NE,46,0.0,0.0,77,0.00,,,0.00,VWS V14.01,2013-08-26 00:46:00,
2013-08-25 20:51:00,65.5,58.1,30.30,NE,46,0.0,0.0,77,0.00,,,0.00,VWS V14.01,2013-08-26 00:51:00,
2013-08-25 20:56:00,65.3,57.5,30.30,NE,46,0.0,0.0,76,0.00,,,0.00,VWS V14.01,2013-08-26 00:56:00,
2013-08-25 21:00:00,68.3,61.2,30.29,NE,46,0.0,1.0,78,0.00,,,0.00,VWS V15.00,2013-08-26 01:00:00,
2013-08-25 21:01:00,65.1,57.7,30.31,NE,46,0.0,0.0,77,0.00,,,0.00,VWS V14.01,2013-08-26 01:01:00,
2013-08-25 21:06:00,64.9,57.2,30.31,NE,46,0.0,0.0,76,0.00,,,0.00,VWS V14.01,2013-08-26 01:06:00,
2013-08-25 21:11:00,64.8,56.7,30.31,NE,46,0.0,0.0,75,0.00,,,0.00,VWS V14.01,2013-08-26 01:11:00,
2013-08-25 21:16:00,64.7,56.2,30.31,NE,46,0.0,0.0,74,0.00,,,0.00,VWS V14.01,2013-08-26 01:16:00,
2013-08-25 21:21:00,64.7,56.2,30.31,NE,46,0.0,0.0,74,0.00,,,0.00,VWS V14.01,2013-08-26 01:21:00,
2013-08-25 21:26:00,64.6,56.1,30.31,NE,46,0.0,0.0,74,0.00,,,0.00,VWS V14.01,2013-08-26 01:26:00,
2013-08-25 21:30:00,66.5,59.1,30.30,NE,46,0.0,0.0,77,0.00,,,0.00,VWS V15.00,2013-08-26 01:30:00,
2013-08-25 21:31:00,64.5,56.0,30.31,NE,46,0.0,0.0,74,0.00,,,0.00,VWS V14.01,2013-08-26 01:31:00,
2013-08-25 21:36:00,64.5,56.0,30.31,NE,46,0.0,0.0,74,0.00,,,0.00,VWS V14.01,2013-08-26 01:36:00,
2013-08-25 21:41:00,64.3,56.2,30.31,NE,46,0.0,0.0,75,0.00,,,0.00,VWS V14.01,2013-08-26 01:41:00,
2013-08-25 21:46:00,64.3,56.2,30.32,NE,46,0.0,1.0,75,0.00,,,0.00,VWS V14.01,2013-08-26 01:46:00,
2013-08-25 21:51:00,64.2,56.1,30.31,NE,46,0.0,1.0,75,0.00,,,0.00,VWS V14.01,2013-08-26 01:51:00,
2013-08-25 21:56:00,64.1,55.7,30.32,NE,46,0.0,1.0,74,0.00,,,0.00,VWS V14.01,2013-08-26 01:56:00,
2013-08-25 22:00:00,65.2,57.5,30.31,NE,46,0.0,0.0,76,0.00,,,0.00,VWS V15.00,2013-08-26 02:00:00,
2013-08-25 22:01:00,64.0,55.6,30.32,NE,46,0.0,0.0,74,0.00,,,0.00,VWS V14.01,2013-08-26 02:01:00,
2013-08-25 22:06:00,63.9,56.2,30.32,NE,46,0.0,0.0,76,0.00,,,0.00,VWS V14.01,2013-08-26 02:06:00,
2013-08-25 22:11:00,63.9,56.2,30.32,NE,46,0.0,1.0,76,0.00,,,0.00,VWS V14.01,2013-08-26 02:11:00,
2013-08-25 22:16:00,63.9,56.2,30.32,NE,46,0.0,1.0,76,0.00,,,0.00,VWS V14.01,2013-08-26 02:16:00,
2013-08-25 22:21:00,63.9,55.8,30.32,NE,46,0.0,1.0,75,0.00,,,0.00,VWS V14.01,2013-08-26 02:21:00,
2013-08-25 22:26:00,63.9,55.8,30.32,NE,46,0.0,1.0,75,0.00,,,0.00,VWS V14.01,2013-08-26 02:26:00,
2013-08-25 22:30:00,64.6,56.1,30.31,NE,46,0.0,0.0,74,0.00,,,0.00,VWS V15.00,2013-08-26 02:30:00,
2013-08-25 22:31:00,63.8,55.7,30.32,NE,46,0.0,1.0,75,0.00,,,0.00,VWS V14.01,2013-08-26 02:31:00,
2013-08-25 22:36:00,63.8,55.4,30.33,NE,46,0.0,1.0,74,0.00,,,0.00,VWS V14.01,2013-08-26 02:36:00,
2013-08-25 22:41:00,63.8,55.7,30.33,NE,46,0.0,1.0,75,0.00,,,0.00,VWS V14.01,2013-08-26 02:41:00,
2013-08-25 22:46:00,63.7,54.9,30.33,NE,46,0.0,1.0,73,0.00,,,0.00,VWS V14.01,2013-08-26 02:46:00,
2013-08-25 22:51:00,63.6,54.8,30.33,NE,46,0.0,1.0,73,0.00,,,0.00,VWS V14.01,2013-08-26 02:51:00,
2013-08-25 22:56:00,63.6,54.4,30.33,NE,46,0.0,1.0,72,0.00,,,0.00,VWS V14.01,2013-08-26 02:56:00,
2013-08-25 23:00:00,64.1,56.0,30.32,NE,46,0.0,1.0,75,0.00,,,0.00,VWS V15.00,2013-08-26 03:00:00,
2013-08-25 23:01:00,63.6,54.0,30.33,NE,46,0.0,0.0,71,0.00,,,0.00,VWS V14.01,2013-08-26 03:01:00,
2013-08-25 23:06:00,63.5,53.5,30.33,NE,46,0.0,0.0,70,0.00,,,0.00,VWS V14.01,2013-08-26 03:06:00,
2013-08-25 23:11:00,63.5,53.5,30.33,NE,46,0.0,0.0,70,0.00,,,0.00,VWS V14.01,2013-08-26 03:11:00,
2013-08-25 23:16:00,63.4,53.1,30.33,NE,46,0.0,0.0,69,0.00,,,0.00,VWS V14.01,2013-08-26 03:16:00,
2013-08-25 23:21:00,63.4,52.7,30.33,NE,46,0.0,0.0,68,0.00,,,0.00,VWS V14.01,2013-08-26 03:21:00,
2013-08-25 23:26:00,63.3,51.8,30.33,NE,46,0.0,0.0,66,0.00,,,0.00,VWS V14.01,2013-08-26 03:26:00,
2013-08-25 23:30:00,63.9,56.2,30.32,NE,46,0.0,1.0,76,0.00,,,0.00,VWS V15.00,2013-08-26 03:30:00,
2013-08-25 23:31:00,63.2,51.7,30.33,NE,46,0.0,0.0,66,0.00,,,0.00,VWS V14.01,2013-08-26 03:31:00,
2013-08-25 23:36:00,63.2,51.7,30.33,NE,46,0.0,0.0,66,0.00,,,0.00,VWS V14.01,2013-08-26 03:36:00,
2013-08-25 23:41:00,63.2,50.8,30.33,NE,46,0.0,0.0,64,0.00,,,0.00,VWS V14.01,2013-08-26 03:41:00,
2013-08-25 23:46:00,63.1,50.3,30.33,NE,46,0.0,0.0,63,0.00,,,0.00,VWS V14.01,2013-08-26 03:46:00,
2013-08-25 23:51:00,63.1,49.5,30.33,NE,46,0.0,0.0,61,0.00,,,0.00,VWS V14.01,2013-08-26 03:51:00,
2013-08-25 23:56:00,63.0,49.8,30.33,NE,46,0.0,0.0,62,0.00,,,0.00,VWS V14.01,2013-08-26 03:56:00,